createdAt,value
2024-03-10T00:00:26.758Z,5.50
2024-03-10T00:02:54.113Z,5.40
2024-03-10T00:05:23.924Z,5.40
2024-03-10T00:07:51.003Z,5.30
2024-03-10T00:10:19.861Z,5.30
2024-03-10T00:12:48.941Z,5.20
2024-03-10T00:15:19.164Z,5.20
2024-03-10T00:17:46.436Z,5.20
2024-03-10T00:20:14.468Z,5.30
2024-03-10T00:22:46.808Z,5.30
2024-03-10T00:25:16.885Z,5.30
2024-03-10T00:27:44.019Z,5.30
2024-03-10T00:30:11.585Z,5.30
2024-03-10T00:32:38.911Z,5.30
2024-03-10T00:35:07.535Z,5.20
2024-03-10T00:37:34.773Z,5.20
2024-03-10T00:40:06.411Z,5.20
2024-03-10T00:42:33.540Z,5.10
2024-03-10T00:45:01.482Z,5.10
2024-03-10T00:47:29.114Z,5.10
2024-03-10T00:49:56.689Z,5.10
2024-03-10T00:52:23.569Z,5.10
2024-03-10T00:54:50.769Z,5.10
2024-03-10T00:57:19.036Z,5.10
2024-03-10T00:59:46.282Z,5.10
2024-03-10T01:02:13.331Z,5.00
2024-03-10T01:04:40.631Z,5.00
2024-03-10T01:07:07.650Z,5.10
2024-03-10T01:09:35.036Z,5.00
2024-03-10T01:12:02.058Z,5.10
2024-03-10T01:14:30.729Z,5.10
2024-03-10T01:16:57.597Z,5.10
2024-03-10T01:19:24.425Z,5.00
2024-03-10T01:21:52.498Z,5.00
2024-03-10T01:24:20.593Z,5.00
2024-03-10T01:26:49.242Z,5.00
2024-03-10T01:29:19.353Z,5.00
2024-03-10T01:31:47.704Z,5.00
2024-03-10T01:34:16.418Z,5.00
2024-03-10T01:36:43.205Z,5.00
2024-03-10T01:39:10.994Z,5.00
2024-03-10T01:41:37.909Z,5.00
2024-03-10T01:44:07.278Z,5.00
2024-03-10T01:46:37.334Z,4.90
2024-03-10T01:49:06.885Z,4.90
2024-03-10T01:51:36.486Z,5.20
2024-03-10T01:54:03.841Z,4.90
2024-03-10T01:56:31.667Z,4.90
2024-03-10T01:58:58.971Z,4.90
2024-03-10T02:01:28.961Z,4.90
2024-03-10T02:03:56.138Z,4.80
2024-03-10T02:06:24.662Z,4.80
2024-03-10T02:08:52.930Z,4.80
2024-03-10T02:11:21.606Z,4.80
2024-03-10T02:13:48.670Z,4.80
2024-03-10T02:16:15.815Z,4.80
2024-03-10T02:18:42.730Z,4.70
2024-03-10T02:21:10.590Z,4.70
2024-03-10T02:23:43.958Z,4.70
2024-03-10T02:26:14.671Z,4.70
2024-03-10T02:28:50.084Z,4.60
2024-03-10T02:31:35.987Z,4.70
2024-03-10T02:34:21.460Z,4.70
2024-03-10T02:37:07.174Z,4.70
2024-03-10T02:39:53.161Z,4.70
2024-03-10T02:42:40.254Z,4.70
2024-03-10T02:45:26.153Z,4.60
2024-03-10T02:47:53.442Z,4.60
2024-03-10T02:50:22.000Z,4.50
2024-03-10T02:52:49.425Z,4.60
2024-03-10T02:55:16.540Z,4.50
2024-03-10T02:57:49.251Z,4.50
2024-03-10T03:00:17.329Z,4.50
2024-03-10T03:02:44.653Z,4.40
2024-03-10T03:05:12.386Z,4.40
2024-03-10T03:07:39.647Z,4.40
2024-03-10T03:10:07.597Z,4.40
2024-03-10T03:12:34.870Z,4.50
2024-03-10T03:15:05.193Z,4.50
2024-03-10T03:17:32.252Z,4.40
2024-03-10T03:20:01.023Z,4.40
2024-03-10T03:22:28.318Z,4.40
2024-03-10T03:24:55.201Z,4.40
2024-03-10T03:27:22.212Z,4.40
2024-03-10T03:29:49.535Z,4.40
2024-03-10T03:32:18.178Z,3.30
2024-03-10T03:34:44.994Z,4.30
2024-03-10T03:37:13.937Z,4.30
2024-03-10T03:39:41.095Z,4.30
2024-03-10T03:42:07.988Z,4.30
2024-03-10T03:44:35.204Z,4.30
2024-03-10T03:47:02.207Z,4.20
2024-03-10T03:49:31.120Z,4.20
2024-03-10T03:51:58.149Z,4.20
2024-03-10T03:54:25.378Z,4.20
2024-03-10T03:56:52.312Z,4.20
2024-03-10T03:59:19.711Z,4.20
2024-03-10T04:01:46.728Z,4.20
2024-03-10T04:04:14.205Z,4.10
2024-03-10T04:06:42.520Z,4.10
2024-03-10T04:09:09.782Z,4.10
2024-03-10T04:11:37.143Z,4.20
2024-03-10T04:14:04.410Z,4.10
2024-03-10T04:16:31.440Z,4.10
2024-03-10T04:18:58.861Z,4.10
2024-03-10T04:21:26.080Z,4.10
2024-03-10T04:23:54.374Z,4.00
2024-03-10T04:26:24.178Z,4.00
2024-03-10T04:28:51.652Z,4.00
2024-03-10T04:31:19.572Z,4.10
2024-03-10T04:33:46.864Z,5.00
2024-03-10T04:36:15.036Z,4.00
2024-03-10T04:38:44.649Z,4.00
2024-03-10T04:41:13.032Z,3.90
2024-03-10T04:43:40.442Z,3.90
2024-03-10T04:46:07.339Z,3.90
2024-03-10T04:48:34.734Z,3.90
2024-03-10T04:51:01.786Z,3.90
2024-03-10T04:53:28.892Z,3.90
2024-03-10T04:55:56.247Z,3.90
2024-03-10T04:58:24.518Z,3.80
2024-03-10T05:00:51.806Z,3.90
2024-03-10T05:03:18.658Z,3.80
2024-03-10T05:05:45.927Z,3.80
2024-03-10T05:08:12.836Z,3.80
2024-03-10T05:10:42.243Z,3.80
2024-03-10T05:13:11.149Z,3.80
2024-03-10T05:15:39.771Z,3.70
2024-03-10T05:18:06.899Z,3.70
2024-03-10T05:20:33.955Z,3.70
2024-03-10T05:23:00.971Z,3.60
2024-03-10T05:25:28.314Z,3.70
2024-03-10T05:27:55.144Z,3.70
2024-03-10T05:30:22.307Z,3.60
2024-03-10T05:32:50.779Z,3.60
2024-03-10T05:35:18.132Z,3.60
2024-03-10T05:37:45.175Z,3.70
2024-03-10T05:40:13.441Z,3.60
2024-03-10T05:42:40.340Z,3.60
2024-03-10T05:45:09.384Z,3.60
2024-03-10T05:47:36.247Z,3.60
2024-03-10T05:50:05.577Z,3.60
2024-03-10T05:52:32.485Z,3.60
2024-03-10T05:54:59.800Z,3.60
2024-03-10T05:57:29.250Z,3.60
2024-03-10T05:59:57.828Z,3.50
2024-03-10T06:02:24.878Z,3.50
2024-03-10T06:04:52.242Z,3.50
2024-03-10T06:07:20.413Z,3.50
2024-03-10T06:09:47.605Z,3.60
2024-03-10T06:12:14.894Z,3.60
2024-03-10T06:14:41.856Z,3.60
2024-03-10T06:17:10.125Z,3.60
2024-03-10T06:19:55.951Z,3.60
2024-03-10T06:22:42.537Z,3.60
2024-03-10T06:25:26.668Z,3.60
2024-03-10T06:27:53.572Z,3.60
2024-03-10T06:30:21.444Z,3.60
2024-03-10T06:35:15.530Z,3.70
2024-03-10T06:37:44.256Z,3.70
2024-03-10T06:40:12.230Z,3.60
2024-03-10T06:42:41.487Z,3.70
2024-03-10T06:45:09.896Z,3.80
2024-03-10T06:47:37.010Z,3.80
2024-03-10T06:50:06.159Z,3.90
2024-03-10T06:52:34.244Z,3.90
2024-03-10T06:55:04.186Z,3.90
2024-03-10T06:57:33.615Z,4.00
2024-03-10T07:00:01.141Z,4.00
2024-03-10T07:02:30.723Z,4.10
2024-03-10T07:04:58.320Z,4.10
2024-03-10T07:07:27.845Z,4.20
2024-03-10T07:09:55.418Z,4.20
2024-03-10T07:12:24.736Z,4.20
2024-03-10T07:14:51.701Z,4.30
2024-03-10T07:17:19.139Z,4.20
2024-03-10T07:19:47.070Z,4.30
2024-03-10T07:22:14.851Z,4.40
2024-03-10T07:24:41.802Z,4.50
2024-03-10T07:27:09.046Z,4.50
2024-03-10T07:29:38.358Z,4.50
2024-03-10T07:32:07.373Z,4.60
2024-03-10T07:34:34.448Z,4.60
2024-03-10T07:37:01.858Z,4.70
2024-03-10T07:39:29.366Z,4.70
2024-03-10T07:41:58.186Z,4.80
2024-03-10T07:44:26.391Z,4.70
2024-03-10T07:46:55.458Z,4.80
2024-03-10T07:49:22.521Z,4.90
2024-03-10T07:51:49.810Z,4.90
2024-03-10T07:54:16.935Z,4.90
2024-03-10T07:56:44.428Z,5.00
2024-03-10T07:59:12.591Z,5.00
2024-03-10T08:01:39.916Z,5.00
2024-03-10T08:04:08.647Z,5.10
2024-03-10T08:06:35.588Z,5.20
2024-03-10T08:09:04.600Z,5.30
2024-03-10T08:11:31.738Z,5.30
2024-03-10T08:13:59.055Z,5.40
2024-03-10T08:16:26.531Z,5.40
2024-03-10T08:18:53.480Z,5.50
2024-03-10T08:21:24.650Z,5.50
2024-03-10T08:23:51.626Z,5.60
2024-03-10T08:26:18.955Z,5.60
2024-03-10T08:28:46.246Z,5.70
2024-03-10T08:31:16.399Z,5.70
2024-03-10T08:33:43.744Z,5.80
2024-03-10T08:36:10.778Z,5.90
2024-03-10T08:38:39.406Z,6.00
2024-03-10T08:41:06.456Z,6.10
2024-03-10T08:43:35.106Z,6.10
2024-03-10T08:46:03.745Z,6.20
2024-03-10T08:48:31.082Z,6.30
2024-03-10T08:50:58.064Z,6.40
2024-03-10T08:53:26.705Z,6.50
2024-03-10T08:55:56.946Z,6.60
2024-03-10T08:58:24.391Z,6.70
2024-03-10T09:00:51.363Z,6.80
2024-03-10T09:03:18.314Z,6.80
2024-03-10T09:05:45.254Z,6.90
2024-03-10T09:08:12.644Z,6.90
2024-03-10T09:10:49.585Z,7.00
2024-03-10T09:13:22.574Z,7.10
2024-03-10T09:15:49.538Z,7.10
2024-03-10T09:18:16.517Z,7.20
2024-03-10T09:20:44.383Z,7.30
2024-03-10T09:23:11.882Z,7.30
2024-03-10T09:25:39.024Z,7.40
2024-03-10T09:28:07.452Z,7.40
2024-03-10T09:30:35.705Z,7.50
2024-03-10T09:33:03.192Z,7.60
2024-03-10T09:35:30.575Z,7.60
2024-03-10T09:38:06.404Z,7.70
2024-03-10T09:40:34.382Z,7.70
2024-03-10T09:43:06.339Z,7.70
2024-03-10T09:45:39.397Z,7.80
2024-03-10T09:48:11.697Z,7.80
2024-03-10T09:50:41.484Z,7.90
2024-03-10T09:53:13.628Z,7.90
2024-03-10T09:55:40.567Z,7.90
2024-03-10T09:58:22.835Z,8.00
2024-03-10T10:00:55.648Z,8.00
2024-03-10T10:03:23.808Z,8.10
2024-03-10T10:05:57.032Z,8.10
2024-03-10T10:08:24.861Z,10.40
2024-03-10T10:10:52.450Z,8.10
2024-03-10T10:13:23.932Z,8.20
2024-03-10T10:15:53.322Z,8.10
2024-03-10T10:18:22.817Z,8.10
2024-03-10T10:20:52.642Z,8.20
2024-03-10T10:23:25.128Z,8.30
2024-03-10T10:25:54.121Z,8.20
2024-03-10T10:28:21.626Z,8.30
2024-03-10T10:30:50.059Z,8.30
2024-03-10T10:33:17.160Z,8.40
2024-03-10T10:35:47.274Z,8.40
2024-03-10T10:38:15.501Z,8.40
2024-03-10T10:40:50.077Z,8.70
2024-03-10T10:43:21.127Z,8.70
2024-03-10T10:45:50.188Z,9.00
2024-03-10T10:48:21.395Z,9.10
2024-03-10T10:50:50.146Z,9.10
2024-03-10T10:53:17.278Z,9.30
2024-03-10T10:55:46.982Z,9.30
2024-03-10T10:58:18.511Z,9.30
2024-03-10T11:00:52.928Z,9.30
2024-03-10T11:03:26.572Z,9.60
2024-03-10T11:06:28.776Z,9.30
2024-03-10T11:08:59.137Z,9.40
2024-03-10T11:11:47.408Z,9.60
2024-03-10T11:14:17.274Z,9.90
2024-03-10T11:16:44.889Z,10.00
2024-03-10T11:19:17.877Z,10.10
2024-03-10T11:21:51.395Z,10.30
2024-03-10T11:24:22.312Z,9.90
2024-03-10T11:27:09.948Z,9.90
2024-03-10T11:32:33.352Z,9.60
2024-03-10T11:35:09.007Z,9.70
2024-03-10T11:37:37.156Z,9.70
2024-03-10T11:40:05.600Z,9.60
2024-03-10T11:42:33.661Z,9.70
2024-03-10T11:45:01.699Z,9.80
2024-03-10T11:47:28.815Z,9.80
2024-03-10T11:49:58.064Z,9.90
2024-03-10T11:54:58.354Z,10.20
2024-03-10T11:57:26.136Z,10.30
2024-03-10T11:59:54.521Z,10.20
2024-03-10T12:04:50.903Z,10.40
2024-03-10T12:09:47.376Z,10.50
2024-03-10T12:12:16.020Z,10.70
2024-03-10T12:14:44.135Z,10.90
2024-03-10T12:17:14.948Z,11.10
2024-03-10T12:19:43.658Z,11.20
2024-03-10T12:22:14.588Z,11.60
2024-03-10T12:24:44.180Z,11.90
2024-03-10T12:27:11.058Z,12.30
2024-03-10T12:29:44.817Z,12.60
2024-03-10T12:32:13.372Z,12.90
2024-03-10T12:34:40.301Z,12.90
2024-03-10T12:37:07.489Z,13.10
2024-03-10T12:39:34.397Z,13.20
2024-03-10T12:42:03.019Z,13.30
2024-03-10T12:44:31.042Z,13.40
2024-03-10T12:46:58.350Z,13.60
2024-03-10T12:49:25.585Z,13.60
2024-03-10T12:51:52.804Z,13.60
2024-03-10T12:54:20.736Z,13.70
2024-03-10T12:56:47.900Z,13.50
2024-03-10T12:59:16.122Z,13.30
2024-03-10T13:01:43.666Z,13.10
2024-03-10T13:04:10.590Z,13.10
2024-03-10T13:06:39.710Z,13.00
2024-03-10T13:09:10.382Z,13.00
2024-03-10T13:11:37.471Z,13.10
2024-03-10T13:14:05.770Z,13.20
2024-03-10T13:16:35.199Z,13.10
2024-03-10T13:19:03.464Z,12.90
2024-03-10T13:21:31.744Z,12.90
2024-03-10T13:23:59.036Z,13.00
2024-03-10T13:26:26.079Z,12.90
2024-03-10T13:28:53.438Z,12.80
2024-03-10T13:31:20.705Z,12.70
2024-03-10T13:33:50.463Z,12.70
2024-03-10T13:36:18.503Z,12.70
2024-03-10T13:38:45.801Z,12.80
2024-03-10T13:41:13.163Z,12.90
2024-03-10T13:43:41.281Z,13.20
2024-03-10T13:46:08.277Z,13.10
2024-03-10T13:48:35.621Z,13.10
2024-03-10T13:51:04.224Z,13.10
2024-03-10T13:53:31.463Z,13.40
2024-03-10T13:55:58.791Z,13.60
2024-03-10T13:58:26.275Z,13.90
2024-03-10T14:00:53.912Z,14.00
2024-03-10T14:03:21.354Z,13.90
2024-03-10T14:05:48.382Z,13.80
2024-03-10T14:08:19.508Z,13.60
2024-03-10T14:10:46.924Z,13.60
2024-03-10T14:13:17.722Z,13.60
2024-03-10T14:15:44.809Z,13.60
2024-03-10T14:18:14.645Z,13.40
2024-03-10T14:20:41.709Z,13.40
2024-03-10T14:23:09.289Z,13.30
2024-03-10T14:25:41.921Z,13.30
2024-03-10T14:28:11.040Z,13.20
2024-03-10T14:30:38.210Z,13.00
2024-03-10T14:33:05.598Z,12.80
2024-03-10T14:35:32.631Z,12.80
2024-03-10T14:38:00.165Z,12.80
2024-03-10T14:40:27.366Z,12.70
2024-03-10T14:42:57.448Z,12.60
2024-03-10T14:45:24.825Z,12.60
2024-03-10T14:47:52.793Z,12.50
2024-03-10T14:50:23.362Z,12.40
2024-03-10T14:52:53.086Z,12.30
2024-03-10T14:55:20.884Z,12.40
2024-03-10T14:57:47.864Z,12.50
2024-03-10T15:00:35.481Z,12.20
2024-03-10T15:03:07.902Z,12.10
2024-03-10T15:05:36.744Z,12.10
2024-03-10T15:08:07.624Z,12.00
2024-03-10T15:10:35.492Z,11.90
2024-03-10T15:13:02.793Z,11.90
2024-03-10T15:15:33.713Z,11.80
2024-03-10T15:18:02.071Z,11.80
2024-03-10T15:20:29.209Z,11.70
2024-03-10T15:22:56.045Z,11.60
2024-03-10T15:25:26.718Z,11.60
2024-03-10T15:27:55.787Z,11.60
2024-03-10T15:30:22.652Z,11.60
2024-03-10T15:32:54.560Z,11.60
2024-03-10T15:35:23.135Z,11.60
2024-03-10T15:37:50.491Z,11.50
2024-03-10T15:40:20.678Z,11.50
2024-03-10T15:42:47.935Z,11.50
2024-03-10T15:45:17.373Z,11.40
2024-03-10T15:47:57.888Z,11.40
2024-03-10T15:50:27.082Z,11.40
2024-03-10T15:52:54.599Z,11.40
2024-03-10T15:55:24.972Z,12.10
2024-03-10T15:57:54.112Z,11.40
2024-03-10T16:00:22.399Z,11.40
2024-03-10T16:03:01.673Z,11.30
2024-03-10T16:05:36.904Z,11.30
2024-03-10T16:08:07.844Z,11.30
2024-03-10T16:10:38.758Z,11.30
2024-03-10T16:13:09.116Z,11.30
2024-03-10T16:15:38.273Z,11.30
2024-03-10T16:18:08.446Z,11.30
2024-03-10T16:20:45.382Z,11.30
2024-03-10T16:23:13.541Z,11.20
2024-03-10T16:25:41.154Z,11.20
2024-03-10T16:28:08.361Z,11.20
2024-03-10T16:30:35.224Z,11.10
2024-03-10T16:33:03.075Z,11.20
2024-03-10T16:35:31.058Z,11.10
2024-03-10T16:38:00.498Z,11.10
2024-03-10T16:40:27.813Z,11.10
2024-03-10T16:42:55.960Z,11.00
2024-03-10T16:45:23.232Z,11.00
2024-03-10T16:47:50.920Z,11.00
2024-03-10T16:50:29.209Z,11.00
2024-03-10T16:52:59.575Z,10.90
2024-03-10T16:55:29.814Z,10.80
2024-03-10T16:58:01.108Z,10.90
2024-03-10T17:00:32.132Z,10.90
2024-03-10T17:02:59.078Z,10.80
2024-03-10T17:05:26.733Z,10.80
2024-03-10T17:07:53.942Z,10.80
2024-03-10T17:10:21.218Z,10.80
2024-03-10T17:12:49.434Z,10.70
2024-03-10T17:15:19.343Z,10.70
2024-03-10T17:20:17.742Z,10.70
2024-03-10T17:22:45.057Z,10.60
2024-03-10T17:25:14.089Z,10.60
2024-03-10T17:27:41.702Z,10.50
2024-03-10T17:30:11.226Z,10.60
2024-03-10T17:32:44.698Z,10.50
2024-03-10T17:35:12.904Z,10.50
2024-03-10T17:37:40.097Z,10.40
2024-03-10T17:40:08.321Z,10.50
2024-03-10T17:42:36.481Z,10.50
2024-03-10T17:45:03.771Z,10.50
2024-03-10T17:47:32.434Z,10.50
2024-03-10T17:49:59.331Z,10.50
2024-03-10T17:52:26.447Z,10.50
2024-03-10T17:54:53.711Z,10.50
2024-03-10T17:57:20.872Z,10.50
2024-03-10T17:59:47.640Z,10.40
2024-03-10T18:02:16.011Z,10.40
2024-03-10T18:04:44.194Z,10.40
2024-03-10T18:07:11.271Z,10.50
2024-03-10T18:09:38.120Z,10.50
2024-03-10T18:12:07.356Z,10.60
2024-03-10T18:14:34.436Z,10.70
2024-03-10T18:17:01.404Z,10.80
2024-03-10T18:19:28.610Z,10.80
2024-03-10T18:21:58.244Z,10.70
2024-03-10T18:24:25.742Z,10.60
2024-03-10T18:26:52.909Z,10.50
2024-03-10T18:29:22.201Z,10.60
2024-03-10T18:31:49.445Z,10.50
2024-03-10T18:34:16.285Z,10.40
2024-03-10T18:36:43.191Z,10.40
2024-03-10T18:39:12.467Z,10.50
2024-03-10T18:41:41.118Z,10.40
2024-03-10T18:44:08.730Z,10.30
2024-03-10T18:46:36.825Z,10.30
2024-03-10T18:49:05.723Z,10.20
2024-03-10T18:51:32.922Z,10.30
2024-03-10T18:54:00.172Z,10.30
2024-03-10T18:56:28.804Z,10.20
2024-03-10T18:58:57.279Z,10.20
2024-03-10T19:01:24.455Z,10.10
2024-03-10T19:03:51.928Z,10.10
2024-03-10T19:06:19.256Z,10.10
2024-03-10T19:08:46.929Z,10.00
2024-03-10T19:11:14.048Z,10.00
2024-03-10T19:13:45.199Z,10.00
2024-03-10T19:16:13.600Z,10.00
2024-03-10T19:18:40.472Z,9.90
2024-03-10T19:21:07.786Z,9.90
2024-03-10T19:23:35.732Z,9.90
2024-03-10T19:26:05.602Z,9.90
2024-03-10T19:28:34.492Z,9.80
2024-03-10T19:31:05.609Z,9.90
2024-03-10T19:33:33.449Z,9.90
2024-03-10T19:36:02.571Z,9.90
2024-03-10T19:38:30.040Z,9.90
2024-03-10T19:40:57.243Z,9.80
2024-03-10T19:43:24.180Z,9.80
2024-03-10T19:45:51.120Z,9.80
2024-03-10T19:48:19.587Z,9.80
2024-03-10T19:50:48.824Z,9.70
2024-03-10T19:53:19.783Z,9.70
2024-03-10T19:55:47.037Z,9.70
2024-03-10T19:58:14.020Z,9.70
2024-03-10T20:00:41.161Z,9.70
2024-03-10T20:03:07.978Z,9.70
2024-03-10T20:05:36.601Z,9.60
2024-03-10T20:08:04.056Z,9.60
2024-03-10T20:10:31.840Z,9.60
2024-03-10T20:13:00.436Z,9.60
2024-03-10T20:15:28.078Z,9.60
2024-03-10T20:17:55.490Z,9.50
2024-03-10T20:20:24.171Z,9.60
2024-03-10T20:22:53.550Z,9.50
2024-03-10T20:25:20.464Z,9.50
2024-03-10T20:27:47.305Z,9.50
2024-03-10T20:30:15.804Z,9.50
2024-03-10T20:32:42.951Z,9.50
2024-03-10T20:35:10.631Z,9.50
2024-03-10T20:37:41.690Z,9.50
2024-03-10T20:40:14.565Z,9.50
2024-03-10T20:42:41.708Z,9.40
2024-03-10T20:45:10.660Z,9.40
2024-03-10T20:47:38.199Z,9.40
2024-03-10T20:50:07.574Z,9.40
2024-03-10T20:52:34.869Z,9.30
2024-03-10T20:55:03.419Z,9.30
2024-03-10T20:57:32.020Z,9.30
2024-03-10T21:00:00.293Z,9.30
2024-03-10T21:02:27.532Z,9.30
2024-03-10T21:04:54.894Z,9.30
2024-03-10T21:07:21.657Z,9.40
2024-03-10T21:09:49.100Z,9.30
2024-03-10T21:12:16.293Z,9.30
2024-03-10T21:14:44.992Z,9.40
2024-03-10T21:17:11.977Z,9.40
2024-03-10T21:19:39.234Z,9.40
2024-03-10T21:22:08.450Z,9.40
2024-03-10T21:24:35.912Z,9.40
2024-03-10T21:27:04.203Z,9.40
2024-03-10T21:29:31.259Z,9.40
2024-03-10T21:32:00.759Z,9.40
2024-03-10T21:34:28.782Z,9.40
2024-03-10T21:36:55.595Z,9.40
2024-03-10T21:39:22.977Z,9.40
2024-03-10T21:41:50.204Z,9.30
2024-03-10T21:44:17.221Z,9.30
2024-03-10T21:46:44.462Z,9.20
2024-03-10T21:49:13.034Z,9.20
2024-03-10T21:51:39.825Z,9.30
2024-03-10T21:56:34.982Z,9.40
2024-03-10T21:59:02.559Z,9.60
2024-03-10T22:01:31.199Z,9.60
2024-03-10T22:03:58.574Z,9.70
2024-03-10T22:06:26.892Z,9.60
2024-03-10T22:08:53.741Z,9.70
2024-03-10T22:11:21.384Z,9.70
2024-03-10T22:13:50.079Z,9.70
2024-03-10T22:16:17.332Z,9.70
2024-03-10T22:18:45.570Z,9.70
2024-03-10T22:21:13.669Z,9.50
2024-03-10T22:23:42.152Z,9.40
2024-03-10T22:26:09.296Z,9.40
2024-03-10T22:28:36.073Z,11.80
2024-03-10T22:31:03.187Z,9.30
2024-03-10T22:33:30.123Z,9.30
2024-03-10T22:35:57.276Z,9.20
2024-03-10T22:38:24.294Z,9.20
2024-03-10T22:40:53.257Z,9.20
2024-03-10T22:43:24.296Z,9.20
2024-03-10T22:45:51.520Z,9.10
2024-03-10T22:48:18.640Z,9.10
2024-03-10T22:50:46.657Z,9.10
2024-03-10T22:53:13.739Z,9.10
2024-03-10T22:55:41.609Z,9.10
2024-03-10T22:58:10.566Z,9.00
2024-03-10T23:00:42.503Z,9.00
2024-03-10T23:03:12.078Z,9.00
2024-03-10T23:05:40.418Z,9.00
2024-03-10T23:08:11.370Z,9.00
2024-03-10T23:10:40.013Z,9.00
2024-03-10T23:13:07.152Z,9.00
2024-03-10T23:15:37.116Z,9.00
2024-03-10T23:18:04.874Z,9.00
2024-03-10T23:20:32.901Z,9.00
2024-03-10T23:23:01.248Z,9.00
2024-03-10T23:25:31.397Z,9.00
2024-03-10T23:27:59.243Z,9.00
2024-03-10T23:30:29.264Z,9.00
2024-03-10T23:32:58.001Z,8.90
2024-03-10T23:35:25.332Z,8.90
2024-03-10T23:37:52.370Z,8.90
2024-03-10T23:40:23.945Z,9.10
2024-03-10T23:42:52.488Z,9.00
2024-03-10T23:45:20.582Z,9.00
2024-03-10T23:47:51.588Z,9.00
2024-03-10T23:50:22.279Z,9.00
2024-03-10T23:52:51.770Z,9.00
2024-03-10T23:55:19.132Z,8.90
2024-03-10T23:57:46.736Z,9.00
